createdAt,value
2023-02-22T00:01:03.305Z,2.10
2023-02-22T00:03:35.035Z,2.25
2023-02-22T00:08:34.244Z,2.30
2023-02-22T00:11:09.932Z,2.40
2023-02-22T00:13:38.450Z,2.63
2023-02-22T00:16:06.004Z,2.00
2023-02-22T00:18:32.784Z,2.13
2023-02-22T00:21:01.457Z,2.03
2023-02-22T00:23:31.092Z,2.50
2023-02-22T00:26:00.146Z,2.17
2023-02-22T00:28:27.895Z,2.53
2023-02-22T00:30:55.393Z,2.55
2023-02-22T00:33:22.816Z,2.33
2023-02-22T00:35:49.481Z,2.53
2023-02-22T00:38:18.539Z,2.42
2023-02-22T00:40:45.522Z,2.55
2023-02-22T00:43:12.484Z,2.28
2023-02-22T00:45:40.506Z,2.33
2023-02-22T00:48:08.721Z,2.80
2023-02-22T00:50:36.541Z,2.33
2023-02-22T00:53:04.781Z,2.13
2023-02-22T00:55:35.070Z,2.65
2023-02-22T00:58:02.173Z,2.83
2023-02-22T01:00:38.060Z,2.10
2023-02-22T01:03:07.305Z,2.40
2023-02-22T01:05:35.100Z,2.17
2023-02-22T01:08:03.361Z,2.20
2023-02-22T01:10:31.327Z,2.42
2023-02-22T01:13:00.063Z,2.80
2023-02-22T01:15:30.764Z,2.80
2023-02-22T01:17:59.534Z,2.80
2023-02-22T01:20:28.023Z,2.50
2023-02-22T01:22:59.986Z,2.58
2023-02-22T01:25:31.000Z,2.83
2023-02-22T01:27:59.457Z,2.13
2023-02-22T01:30:31.090Z,2.45
2023-02-22T01:32:58.142Z,2.80
2023-02-22T01:35:29.193Z,2.42
2023-02-22T01:38:00.760Z,2.72
2023-02-22T01:43:02.243Z,2.72
2023-02-22T01:45:34.851Z,2.88
2023-02-22T01:48:09.870Z,2.35
2023-02-22T01:50:41.376Z,2.50
2023-02-22T01:53:11.423Z,2.75
2023-02-22T01:55:39.050Z,3.05
2023-02-22T01:58:07.087Z,2.67
2023-02-22T02:00:34.499Z,2.55
2023-02-22T02:03:33.226Z,2.25
2023-02-22T02:06:03.955Z,2.60
2023-02-22T02:08:58.756Z,2.60
2023-02-22T02:11:26.543Z,3.58
2023-02-22T02:13:55.285Z,2.90
2023-02-22T02:16:25.942Z,2.70
2023-02-22T02:18:53.464Z,2.25
2023-02-22T02:21:41.301Z,2.72
2023-02-22T02:24:39.653Z,3.03
2023-02-22T02:27:20.065Z,2.63
2023-02-22T02:30:19.362Z,2.17
2023-02-22T02:32:49.029Z,2.78
2023-02-22T02:35:25.890Z,2.92
2023-02-22T02:38:04.855Z,2.53
2023-02-22T02:40:49.295Z,2.33
2023-02-22T02:43:32.952Z,2.97
2023-02-22T02:46:34.865Z,2.60
2023-02-22T02:49:08.110Z,2.97
2023-02-22T02:51:42.085Z,2.42
2023-02-22T02:54:10.305Z,2.55
2023-02-22T02:56:37.425Z,2.25
2023-02-22T02:59:04.211Z,2.88
2023-02-22T03:01:49.891Z,2.85
2023-02-22T03:04:48.982Z,2.33
2023-02-22T03:07:32.447Z,2.78
2023-02-22T03:10:14.587Z,2.63
2023-02-22T03:13:12.860Z,2.40
2023-02-22T03:16:15.624Z,2.78
2023-02-22T03:18:49.356Z,2.25
2023-02-22T03:21:28.914Z,2.50
2023-02-22T03:24:25.546Z,3.20
2023-02-22T03:27:11.726Z,2.53
2023-02-22T03:29:45.715Z,2.72
2023-02-22T03:32:19.763Z,2.33
2023-02-22T03:34:56.824Z,2.55
2023-02-22T03:37:34.128Z,2.40
2023-02-22T03:40:16.894Z,2.63
2023-02-22T03:42:53.304Z,2.30
2023-02-22T03:45:25.906Z,2.47
2023-02-22T03:48:06.973Z,2.88
2023-02-22T03:50:37.064Z,1.92
2023-02-22T03:53:07.501Z,2.35
2023-02-22T03:55:36.828Z,2.50
2023-02-22T03:58:10.934Z,2.30
2023-02-22T04:00:38.702Z,2.58
2023-02-22T04:03:06.058Z,2.03
2023-02-22T04:05:33.455Z,2.75
2023-02-22T04:08:00.400Z,2.40
2023-02-22T04:10:28.098Z,2.33
2023-02-22T04:12:54.800Z,2.70
2023-02-22T04:15:24.937Z,2.05
2023-02-22T04:17:56.276Z,2.15
2023-02-22T04:20:25.769Z,2.08
2023-02-22T04:22:59.275Z,2.53
2023-02-22T04:25:26.372Z,2.42
2023-02-22T04:27:54.029Z,1.80
2023-02-22T04:30:32.427Z,2.10
2023-02-22T04:33:01.485Z,1.85
2023-02-22T04:35:28.394Z,4.63
2023-02-22T04:37:55.216Z,4.18
2023-02-22T04:40:22.378Z,2.38
2023-02-22T04:42:49.327Z,2.92
2023-02-22T04:45:16.045Z,3.35
2023-02-22T04:47:43.466Z,2.42
2023-02-22T04:50:13.037Z,2.20
2023-02-22T04:52:40.287Z,2.30
2023-02-22T04:55:07.704Z,2.15
2023-02-22T04:57:36.378Z,2.15
2023-02-22T05:00:05.658Z,2.47
2023-02-22T05:02:33.262Z,2.60
2023-02-22T05:05:00.032Z,2.33
2023-02-22T05:07:26.757Z,2.25
2023-02-22T05:09:53.661Z,2.22
2023-02-22T05:12:21.406Z,2.25
2023-02-22T05:14:48.163Z,2.63
2023-02-22T05:17:14.906Z,1.67
2023-02-22T05:19:42.118Z,1.60
2023-02-22T05:22:08.849Z,2.33
2023-02-22T05:24:35.655Z,2.67
2023-02-22T05:27:02.504Z,2.13
2023-02-22T05:29:29.385Z,2.40
2023-02-22T05:31:56.248Z,3.35
2023-02-22T05:34:23.969Z,2.22
2023-02-22T05:36:50.780Z,1.80
2023-02-22T05:39:17.420Z,1.30
2023-02-22T05:41:44.066Z,1.80
2023-02-22T05:44:10.869Z,1.75
2023-02-22T05:46:37.660Z,1.20
2023-02-22T05:49:04.991Z,1.67
2023-02-22T05:51:31.850Z,1.70
2023-02-22T05:53:58.626Z,1.45
2023-02-22T05:56:27.657Z,1.30
2023-02-22T05:58:54.897Z,1.30
2023-02-22T06:01:21.813Z,1.00
2023-02-22T06:03:52.254Z,0.90
2023-02-22T06:06:22.168Z,1.10
2023-02-22T06:08:51.243Z,1.27
2023-02-22T06:11:20.041Z,1.27
2023-02-22T06:13:52.540Z,1.45
2023-02-22T06:16:21.243Z,1.30
2023-02-22T06:18:49.969Z,1.33
2023-02-22T06:21:17.724Z,1.00
2023-02-22T06:23:44.709Z,1.30
2023-02-22T06:26:11.456Z,1.30
2023-02-22T06:28:38.196Z,1.40
2023-02-22T06:31:05.123Z,1.15
2023-02-22T06:33:31.908Z,0.88
2023-02-22T06:36:03.518Z,0.90
2023-02-22T06:40:57.490Z,2.13
2023-02-22T06:43:25.330Z,1.70
2023-02-22T06:45:52.892Z,1.23
2023-02-22T06:48:19.758Z,1.13
2023-02-22T06:50:46.804Z,0.95
2023-02-22T06:53:13.592Z,1.23
2023-02-22T06:55:40.393Z,1.50
2023-02-22T06:58:07.196Z,4.20
2023-02-22T07:00:33.974Z,1.67
2023-02-22T07:03:01.807Z,1.33
2023-02-22T07:05:29.131Z,1.48
2023-02-22T07:08:03.533Z,1.30
2023-02-22T07:10:32.237Z,1.02
2023-02-22T07:12:59.106Z,1.00
2023-02-22T07:15:28.171Z,1.35
2023-02-22T07:17:55.888Z,1.08
2023-02-22T07:20:24.614Z,1.30
2023-02-22T07:22:51.887Z,1.20
2023-02-22T07:25:19.865Z,1.38
2023-02-22T07:27:47.344Z,1.50
2023-02-22T07:30:25.431Z,1.38
2023-02-22T07:32:54.071Z,1.50
2023-02-22T07:35:29.316Z,1.98
2023-02-22T07:37:56.888Z,2.95
2023-02-22T07:40:25.574Z,2.35
2023-02-22T07:43:07.222Z,2.10
2023-02-22T07:45:36.706Z,1.60
2023-02-22T07:48:05.076Z,2.00
2023-02-22T07:50:33.985Z,2.03
2023-02-22T07:53:07.782Z,2.00
2023-02-22T07:55:35.699Z,3.10
2023-02-22T07:58:05.986Z,1.75
2023-02-22T08:00:37.227Z,2.35
2023-02-22T08:03:07.371Z,2.10
2023-02-22T08:05:36.403Z,1.92
2023-02-22T08:08:03.922Z,2.03
2023-02-22T08:10:31.041Z,1.70
2023-02-22T08:12:57.963Z,2.20
2023-02-22T08:15:31.054Z,2.22
2023-02-22T08:17:59.385Z,2.20
2023-02-22T08:20:26.604Z,5.38
2023-02-22T08:22:53.947Z,5.80
2023-02-22T08:25:22.344Z,7.25
2023-02-22T08:27:49.866Z,7.70
2023-02-22T08:30:23.383Z,9.23
2023-02-22T08:32:51.285Z,7.90
2023-02-22T08:35:20.348Z,8.10
2023-02-22T08:37:50.262Z,7.78
2023-02-22T08:40:21.431Z,7.15
2023-02-22T08:42:48.301Z,7.85
2023-02-22T08:45:15.629Z,7.03
2023-02-22T08:47:42.868Z,7.68
2023-02-22T08:50:15.529Z,6.50
2023-02-22T08:52:42.674Z,6.40
2023-02-22T08:55:09.573Z,5.80
2023-02-22T08:57:36.279Z,6.03
2023-02-22T09:00:05.414Z,6.18
2023-02-22T09:02:32.232Z,5.43
2023-02-22T09:04:59.167Z,4.40
2023-02-22T09:07:26.067Z,5.00
2023-02-22T09:09:53.015Z,4.78
2023-02-22T09:12:20.491Z,4.70
2023-02-22T09:14:47.286Z,4.38
2023-02-22T09:17:14.005Z,4.32
2023-02-22T09:19:40.820Z,3.75
2023-02-22T09:22:07.762Z,3.58
2023-02-22T09:24:36.258Z,3.28
2023-02-22T09:27:04.582Z,3.03
2023-02-22T09:29:31.654Z,3.40
2023-02-22T09:31:58.670Z,3.63
2023-02-22T09:34:29.673Z,3.70
2023-02-22T09:36:58.111Z,3.60
2023-02-22T09:39:25.169Z,3.90
2023-02-22T09:42:14.088Z,3.67
2023-02-22T09:44:48.253Z,3.65
2023-02-22T09:47:34.420Z,3.78
2023-02-22T09:50:15.701Z,3.63
2023-02-22T09:52:54.067Z,3.30
2023-02-22T09:55:31.105Z,3.50
2023-02-22T09:58:02.540Z,3.75
2023-02-22T10:00:33.930Z,4.03
2023-02-22T10:03:09.447Z,4.15
2023-02-22T10:05:39.885Z,3.72
2023-02-22T10:08:12.824Z,4.38
2023-02-22T10:10:45.939Z,3.40
2023-02-22T10:13:14.080Z,3.60
2023-02-22T10:15:54.974Z,3.03
2023-02-22T10:18:56.331Z,4.23
2023-02-22T10:21:51.999Z,3.85
2023-02-22T10:24:41.925Z,3.83
2023-02-22T10:27:22.195Z,4.10
2023-02-22T10:29:57.120Z,4.13
2023-02-22T10:32:32.375Z,3.45
2023-02-22T10:35:05.503Z,4.45
2023-02-22T10:37:34.639Z,4.10
2023-02-22T10:40:23.070Z,4.97
2023-02-22T10:42:50.557Z,5.85
2023-02-22T10:45:37.932Z,6.15
2023-02-22T10:48:11.669Z,5.50
2023-02-22T10:50:42.409Z,5.97
2023-02-22T10:53:10.810Z,6.15
2023-02-22T10:56:09.342Z,4.85
2023-02-22T10:58:48.998Z,6.57
2023-02-22T11:01:22.287Z,4.82
2023-02-22T11:04:10.984Z,5.00
2023-02-22T11:06:40.299Z,4.38
2023-02-22T11:09:10.363Z,4.95
2023-02-22T11:11:38.658Z,4.75
2023-02-22T11:14:06.925Z,4.68
2023-02-22T11:16:38.352Z,4.63
2023-02-22T11:21:39.439Z,4.75
2023-02-22T11:24:12.927Z,4.20
2023-02-22T11:26:43.853Z,4.55
2023-02-22T11:29:19.548Z,4.82
2023-02-22T11:31:50.353Z,4.53
2023-02-22T11:34:37.010Z,4.55
2023-02-22T11:37:30.398Z,4.78
2023-02-22T11:40:22.610Z,3.80
2023-02-22T11:43:06.098Z,4.95
2023-02-22T11:45:33.099Z,4.05
2023-02-22T11:48:06.030Z,5.38
2023-02-22T11:50:52.203Z,4.63
2023-02-22T11:53:42.169Z,4.70
2023-02-22T11:56:12.015Z,4.47
2023-02-22T11:59:11.698Z,4.18
2023-02-22T12:01:56.505Z,4.45
2023-02-22T12:05:00.202Z,4.43
2023-02-22T12:07:48.875Z,4.25
2023-02-22T12:10:35.852Z,4.57
2023-02-22T12:13:29.912Z,4.25
2023-02-22T12:16:21.374Z,5.85
2023-02-22T12:19:06.396Z,6.00
2023-02-22T12:21:36.554Z,7.30
2023-02-22T12:24:16.442Z,5.43
2023-02-22T12:26:56.950Z,6.25
2023-02-22T12:29:30.736Z,6.57
2023-02-22T12:32:10.561Z,5.90
2023-02-22T12:34:41.318Z,5.55
2023-02-22T12:37:31.073Z,6.40
2023-02-22T12:40:14.840Z,7.00
2023-02-22T12:43:01.181Z,7.32
2023-02-22T12:45:48.448Z,6.43
2023-02-22T12:48:27.250Z,7.40
2023-02-22T12:50:59.263Z,7.00
2023-02-22T12:53:34.321Z,6.60
2023-02-22T12:56:21.723Z,6.65
2023-02-22T12:59:02.840Z,7.05
2023-02-22T13:01:38.513Z,6.78
2023-02-22T13:04:19.474Z,7.28
2023-02-22T13:07:21.664Z,7.90
2023-02-22T13:09:57.474Z,7.70
2023-02-22T13:13:04.883Z,7.55
2023-02-22T13:16:23.200Z,7.63
2023-02-22T13:19:07.391Z,8.38
2023-02-22T13:21:34.128Z,7.85
2023-02-22T13:24:24.034Z,8.05
2023-02-22T13:26:56.531Z,9.43
2023-02-22T13:29:36.805Z,10.35
2023-02-22T13:32:19.582Z,10.75
2023-02-22T13:35:15.242Z,10.90
2023-02-22T13:37:54.209Z,11.05
2023-02-22T13:40:23.975Z,11.23
2023-02-22T13:43:26.560Z,11.52
2023-02-22T13:46:09.442Z,11.05
2023-02-22T13:48:58.351Z,10.65
2023-02-22T13:51:48.690Z,10.88
2023-02-22T13:54:28.826Z,10.70
2023-02-22T13:56:57.495Z,11.52
2023-02-22T13:59:36.574Z,10.98
2023-02-22T14:02:07.901Z,11.15
2023-02-22T14:04:40.351Z,11.27
2023-02-22T14:07:22.455Z,10.43
2023-02-22T14:09:56.608Z,10.43
2023-02-22T14:12:29.406Z,10.02
2023-02-22T14:15:29.287Z,10.57
2023-02-22T14:17:57.003Z,10.52
2023-02-22T14:20:37.473Z,10.77
2023-02-22T14:23:31.383Z,10.95
2023-02-22T14:26:23.023Z,10.65
2023-02-22T14:29:17.690Z,11.02
2023-02-22T14:31:44.886Z,10.70
2023-02-22T14:34:15.318Z,9.65
2023-02-22T14:37:07.712Z,10.02
2023-02-22T14:39:51.028Z,9.43
2023-02-22T14:42:27.200Z,10.18
2023-02-22T14:45:12.748Z,9.73
2023-02-22T14:48:13.667Z,9.15
2023-02-22T14:50:40.555Z,9.43
2023-02-22T14:53:10.463Z,10.20
2023-02-22T14:55:44.817Z,10.07
2023-02-22T14:58:45.170Z,9.85
2023-02-22T15:01:50.795Z,10.20
2023-02-22T15:04:31.014Z,10.50
2023-02-22T15:07:00.968Z,9.55
2023-02-22T15:09:33.614Z,9.40
2023-02-22T15:12:04.816Z,10.07
2023-02-22T15:14:37.825Z,10.73
2023-02-22T15:17:17.057Z,10.48
2023-02-22T15:19:46.330Z,11.35
2023-02-22T15:22:26.447Z,11.60
2023-02-22T15:25:01.029Z,10.85
2023-02-22T15:27:28.665Z,10.75
2023-02-22T15:30:04.948Z,10.80
2023-02-22T15:32:31.924Z,11.27
2023-02-22T15:35:29.721Z,10.85
2023-02-22T15:38:13.128Z,10.52
2023-02-22T15:40:43.303Z,10.95
2023-02-22T15:43:28.472Z,10.82
2023-02-22T15:45:56.803Z,12.60
2023-02-22T15:48:26.327Z,11.63
2023-02-22T15:51:13.842Z,11.20
2023-02-22T15:53:51.531Z,12.00
2023-02-22T15:56:25.866Z,11.38
2023-02-22T15:59:00.620Z,11.95
2023-02-22T16:01:27.482Z,11.70
2023-02-22T16:03:57.615Z,12.05
2023-02-22T16:06:41.598Z,11.93
2023-02-22T16:09:11.767Z,11.48
2023-02-22T16:11:43.427Z,12.48
2023-02-22T16:14:30.360Z,10.23
2023-02-22T16:17:25.897Z,11.20
2023-02-22T16:19:53.414Z,12.27
2023-02-22T16:22:35.692Z,12.05
2023-02-22T16:25:21.622Z,11.98
2023-02-22T16:27:59.911Z,11.63
2023-02-22T16:30:34.668Z,12.00
2023-02-22T16:33:05.574Z,11.57
2023-02-22T16:35:35.523Z,9.90
2023-02-22T16:38:04.760Z,10.43
2023-02-22T16:40:35.319Z,9.98
2023-02-22T16:43:14.725Z,9.75
2023-02-22T16:45:42.641Z,10.07
2023-02-22T16:48:21.122Z,11.48
2023-02-22T16:50:51.212Z,10.57
2023-02-22T16:53:22.018Z,10.55
2023-02-22T16:55:51.035Z,11.60
2023-02-22T16:58:19.240Z,10.45
2023-02-22T17:00:46.009Z,10.45
2023-02-22T17:03:17.450Z,10.77
2023-02-22T17:05:44.642Z,12.02
2023-02-22T17:08:11.375Z,12.60
2023-02-22T17:10:38.230Z,13.13
2023-02-22T17:13:21.595Z,11.63
2023-02-22T17:15:49.110Z,11.10
2023-02-22T17:18:22.572Z,10.90
2023-02-22T17:20:50.827Z,11.05
2023-02-22T17:23:18.959Z,11.50
2023-02-22T17:25:55.626Z,10.23
2023-02-22T17:28:24.757Z,11.27
2023-02-22T17:30:53.167Z,10.20
2023-02-22T17:33:26.674Z,9.35
2023-02-22T17:35:55.694Z,10.45
2023-02-22T17:38:22.884Z,13.20
2023-02-22T17:40:52.039Z,12.93
2023-02-22T17:43:19.423Z,11.10
2023-02-22T17:45:46.981Z,11.07
2023-02-22T17:48:15.200Z,11.35
2023-02-22T17:50:44.336Z,10.93
2023-02-22T17:53:11.296Z,11.68
2023-02-22T17:55:40.745Z,11.43
2023-02-22T17:58:14.445Z,12.18
2023-02-22T18:00:47.326Z,12.23
2023-02-22T18:03:16.534Z,11.70
2023-02-22T18:05:48.827Z,14.70
2023-02-22T18:08:15.806Z,15.43
2023-02-22T18:10:43.784Z,11.80
2023-02-22T18:13:16.658Z,13.23
2023-02-22T18:15:43.737Z,12.13
2023-02-22T18:18:10.423Z,11.52
2023-02-22T18:20:40.008Z,10.80
2023-02-22T18:23:08.461Z,14.10
2023-02-22T18:25:36.195Z,13.07
2023-02-22T18:28:06.289Z,14.45
2023-02-22T18:30:35.899Z,14.05
2023-02-22T18:33:11.458Z,14.20
2023-02-22T18:35:39.438Z,12.30
2023-02-22T18:38:07.812Z,13.57
2023-02-22T18:40:34.931Z,13.90
2023-02-22T18:43:02.172Z,15.10
2023-02-22T18:45:28.955Z,13.43
2023-02-22T18:47:58.143Z,15.70
2023-02-22T18:50:25.612Z,12.70
2023-02-22T18:52:52.698Z,13.65
2023-02-22T18:55:21.072Z,13.35
2023-02-22T18:57:48.518Z,12.63
2023-02-22T19:00:19.269Z,12.90
2023-02-22T19:02:46.052Z,12.32
2023-02-22T19:05:17.493Z,11.18
2023-02-22T19:10:12.198Z,12.93
2023-02-22T19:12:39.132Z,12.45
2023-02-22T19:15:06.097Z,13.30
2023-02-22T19:17:36.584Z,11.52
2023-02-22T19:20:10.267Z,11.65
2023-02-22T19:25:05.615Z,11.02
2023-02-22T19:27:34.104Z,12.40
2023-02-22T19:30:00.886Z,11.43
2023-02-22T19:32:27.802Z,11.90
2023-02-22T19:35:02.241Z,12.55
2023-02-22T19:37:34.139Z,13.10
2023-02-22T19:40:16.866Z,10.63
2023-02-22T19:42:43.604Z,11.85
2023-02-22T19:45:10.536Z,11.52
2023-02-22T19:47:37.410Z,12.80
2023-02-22T19:50:05.180Z,10.40
2023-02-22T19:52:32.516Z,9.25
2023-02-22T19:54:59.868Z,11.18
2023-02-22T19:57:29.519Z,10.45
2023-02-22T19:59:56.347Z,9.50
2023-02-22T20:02:27.258Z,8.35
2023-02-22T20:04:55.261Z,8.23
2023-02-22T20:07:22.254Z,8.48
2023-02-22T20:09:49.771Z,8.23
2023-02-22T20:12:16.640Z,9.25
2023-02-22T20:14:43.679Z,8.15
2023-02-22T20:17:11.002Z,7.78
2023-02-22T20:19:38.765Z,7.85
2023-02-22T20:22:06.117Z,8.20
2023-02-22T20:24:32.930Z,8.50
2023-02-22T20:26:59.714Z,9.35
2023-02-22T20:29:30.223Z,7.88
2023-02-22T20:32:02.096Z,8.35
2023-02-22T20:34:32.385Z,6.82
2023-02-22T20:37:00.988Z,6.78
2023-02-22T20:39:28.380Z,6.55
2023-02-22T20:41:55.992Z,5.78
2023-02-22T20:44:22.814Z,4.80
2023-02-22T20:46:49.602Z,4.65
2023-02-22T20:49:19.019Z,5.70
2023-02-22T20:51:46.963Z,9.45
2023-02-22T20:54:14.112Z,18.73
2023-02-22T20:56:42.840Z,21.88
2023-02-22T20:59:15.798Z,25.48
2023-02-22T21:01:44.927Z,25.58
2023-02-22T21:04:22.185Z,15.77
2023-02-22T21:06:49.151Z,14.45
2023-02-22T21:09:18.677Z,11.13
2023-02-22T21:11:46.619Z,9.18
2023-02-22T21:14:18.629Z,4.28
2023-02-22T21:16:49.196Z,4.38
2023-02-22T21:19:27.905Z,4.32
2023-02-22T21:21:59.804Z,5.15
2023-02-22T21:24:28.260Z,3.58
2023-02-22T21:26:58.891Z,3.45
2023-02-22T21:29:26.145Z,7.03
2023-02-22T21:31:53.014Z,8.48
2023-02-22T21:34:20.063Z,10.40
2023-02-22T21:36:47.090Z,8.07
2023-02-22T21:39:20.860Z,11.85
2023-02-22T21:41:49.975Z,10.40
2023-02-22T21:44:18.028Z,11.63
2023-02-22T21:46:47.408Z,10.43
2023-02-22T21:49:14.144Z,9.48
2023-02-22T21:51:41.552Z,9.20
2023-02-22T21:54:10.093Z,10.68
2023-02-22T21:56:39.928Z,10.07
2023-02-22T21:59:11.669Z,9.20
2023-02-22T22:04:19.539Z,8.23
2023-02-22T22:06:49.541Z,8.50
2023-02-22T22:09:19.679Z,9.07
2023-02-22T22:11:49.559Z,8.73
2023-02-22T22:14:21.393Z,8.80
2023-02-22T22:16:49.677Z,8.25
2023-02-22T22:19:16.862Z,7.13
2023-02-22T22:21:43.968Z,6.53
2023-02-22T22:24:11.192Z,6.53
2023-02-22T22:26:38.574Z,8.20
2023-02-22T22:29:11.927Z,7.38
2023-02-22T22:31:39.091Z,8.02
2023-02-22T22:34:06.369Z,7.55
2023-02-22T22:36:34.516Z,8.70
2023-02-22T22:39:01.241Z,8.45
2023-02-22T22:41:28.297Z,7.03
2023-02-22T22:43:55.890Z,8.55
2023-02-22T22:46:22.697Z,7.47
2023-02-22T22:48:49.634Z,7.50
2023-02-22T22:51:20.316Z,7.47
2023-02-22T22:53:49.304Z,8.50
2023-02-22T22:56:19.473Z,7.93
2023-02-22T22:58:55.450Z,7.88
2023-02-22T23:01:27.606Z,8.20
2023-02-22T23:04:02.110Z,7.90
2023-02-22T23:06:39.096Z,5.85
2023-02-22T23:09:31.644Z,4.90
2023-02-22T23:12:16.549Z,5.65
2023-02-22T23:14:45.336Z,5.95
2023-02-22T23:17:16.319Z,4.90
2023-02-22T23:19:44.971Z,4.40
2023-02-22T23:22:14.402Z,6.93
2023-02-22T23:24:41.639Z,5.65
2023-02-22T23:27:10.747Z,5.70
2023-02-22T23:29:39.732Z,5.47
2023-02-22T23:32:07.309Z,5.85
2023-02-22T23:34:36.008Z,5.63
2023-02-22T23:37:03.096Z,6.32
2023-02-22T23:39:31.212Z,5.50
2023-02-22T23:41:59.373Z,6.13
2023-02-22T23:44:27.904Z,4.75
2023-02-22T23:46:55.727Z,5.30
2023-02-22T23:49:32.645Z,5.75
2023-02-22T23:51:59.325Z,5.45
2023-02-22T23:54:26.020Z,5.97
2023-02-22T23:57:02.396Z,5.18
2023-02-22T23:59:30.614Z,4.70
